Williford, AR (72482)

1:17 PM CST on March 05, 2015 (GMT -0600)
Rural Ravenden Springs | Change Station
CLOSE
Current Station
Personal Weather Station
Location: Ravenden Springs, AR
Elevation: 680 ft
Nearby Weather Stations

Elev 680 ft 36.31 °N, 91.20 °W | Updated 7 seconds ago

Clear
Clear
33.1 °F
Feels Like 28 °F
N
5.8
Wind Variable Wind from North
Gusts 8.1 mph

Today
High -- | Low -- °F
--% Chance of Precip.
Yesterday
High -- | Low -- °F
Precip. -- in
6:30 AM 6:03 PM
Full, 100% visible
Pressure 30.53 in
Visibility 10.0 miles
Clouds Clear
Windchill 28 °F
Dew Point 13 °F
Humidity 43%
Rainfall in
Snow Depth Not available.
UV 7 out of 12
Pollen 1.00 out of 12
Air Quality Not available.
Flu Activity Not available.
METAR KARG 051855Z AUTO 34007KT 10SM CLR 00/M12 A3053 RMK AO1 P0001

More Conditions Fewer Conditions

Pressure 30.53 in
Visibility 10.0 miles
Clouds Clear
Windchill 28 °F
Dew Point 13 °F
Humidity 43%
Rainfall in
Snow Depth Not available.
UV 7 out of 12
Pollen 1.00 out of 12
Air Quality Not available.
Flu Activity Not available.
METAR KARG 051855Z AUTO 34007KT 10SM CLR 00/M12 A3053 RMK AO1 P0001

More Conditions Fewer Conditions

10-Day Weather Forecast

Almanac

Astronomy

Mar. 05, 2015 Rise Set
Actual Time
Civil Twilight
Nautical Twilight
Astronomical Twilight
Moon
Length of Visible Light
Length of Day
Tomorrow will be .
, % of the Moon is Illuminated

Today's Extremes

State Highs State Lows

Community

WunderPhotos

Upload Photos

1,802,916 photos uploaded!

WunderBlogs® & News

Nearby

Air Quality

  Air Quality AQ Index Pollutant
Not available.

Snow Depth

Station Depth Elevation

Earthquake Activity

City Distance Mag. Time & Date
Minimum magnitude displayed is 2.5.

Coastal Water Temperatures

Place Temperature

Nearby Weather Stations